createdAt,value
2022-12-25T00:00:20.744Z,62.23
2022-12-25T00:02:22.877Z,62.47
2022-12-25T00:04:24.589Z,62.45
2022-12-25T00:06:26.252Z,62.58
2022-12-25T00:08:27.887Z,62.35
2022-12-25T00:10:29.467Z,62.44
2022-12-25T00:12:32.621Z,62.32
2022-12-25T00:14:34.245Z,62.46
2022-12-25T00:16:35.918Z,62.77
2022-12-25T00:18:37.500Z,62.61
2022-12-25T00:20:39.037Z,62.43
2022-12-25T00:22:40.642Z,62.27
2022-12-25T00:24:42.164Z,62.41
2022-12-25T00:26:43.755Z,62.32
2022-12-25T00:28:46.807Z,62.46
2022-12-25T00:30:48.463Z,62.31
2022-12-25T00:32:50.063Z,62.37
2022-12-25T00:34:51.700Z,62.50
2022-12-25T00:36:53.268Z,62.60
2022-12-25T00:38:54.917Z,62.55
2022-12-25T00:40:56.520Z,62.70
2022-12-25T00:42:58.329Z,62.31
2022-12-25T00:45:01.327Z,62.51
2022-12-25T00:47:03.586Z,62.38
2022-12-25T00:49:05.236Z,62.11
2022-12-25T00:51:17.709Z,61.94
2022-12-25T00:53:19.331Z,62.12
2022-12-25T00:55:20.882Z,62.09
2022-12-25T00:57:22.517Z,62.06
2022-12-25T00:59:24.142Z,62.36
2022-12-25T01:01:27.182Z,62.10
2022-12-25T01:03:29.018Z,62.47
2022-12-25T01:05:30.746Z,62.11
2022-12-25T01:07:32.324Z,62.24
2022-12-25T01:09:33.892Z,62.16
2022-12-25T01:11:35.522Z,62.06
2022-12-25T01:13:38.096Z,62.27
2022-12-25T01:15:39.704Z,62.37
2022-12-25T01:17:43.118Z,62.46
2022-12-25T01:19:44.749Z,62.16
2022-12-25T01:21:46.335Z,62.37
2022-12-25T01:23:48.786Z,62.34
2022-12-25T01:25:50.359Z,62.52
2022-12-25T01:27:51.958Z,62.36
2022-12-25T01:29:53.792Z,62.42
2022-12-25T01:31:55.453Z,62.46
2022-12-25T01:33:58.395Z,62.36
2022-12-25T01:36:00.013Z,62.18
2022-12-25T01:38:01.606Z,62.38
2022-12-25T01:40:03.553Z,62.38
2022-12-25T01:42:05.294Z,62.31
2022-12-25T01:44:27.863Z,62.15
2022-12-25T01:46:30.205Z,62.32
2022-12-25T01:48:35.587Z,62.42
2022-12-25T01:50:43.659Z,62.43
2022-12-25T01:52:46.702Z,62.33
2022-12-25T01:54:51.739Z,62.53
2022-12-25T01:56:57.344Z,62.44
2022-12-25T01:58:59.761Z,62.54
2022-12-25T02:01:01.481Z,62.68
2022-12-25T02:03:03.838Z,62.43
2022-12-25T02:05:10.253Z,62.74
2022-12-25T02:07:14.707Z,62.75
2022-12-25T02:09:16.313Z,62.76
2022-12-25T02:11:17.951Z,62.63
2022-12-25T02:13:20.231Z,62.68
2022-12-25T02:15:27.813Z,62.63
2022-12-25T02:17:35.743Z,62.61
2022-12-25T02:19:56.467Z,62.63
2022-12-25T02:22:10.846Z,62.44
2022-12-25T02:24:52.348Z,62.49
2022-12-25T02:27:11.367Z,62.39
2022-12-25T02:29:21.463Z,62.50
2022-12-25T02:31:31.314Z,62.34
2022-12-25T02:33:39.684Z,62.53
2022-12-25T02:35:43.759Z,62.55
2022-12-25T02:37:52.390Z,62.71
2022-12-25T02:39:59.598Z,62.60
2022-12-25T02:42:05.972Z,62.49
2022-12-25T02:44:12.990Z,62.19
2022-12-25T02:46:20.378Z,62.13
2022-12-25T02:48:26.116Z,62.13
2022-12-25T02:50:27.943Z,62.38
2022-12-25T02:52:30.652Z,62.33
2022-12-25T02:54:36.511Z,62.22
2022-12-25T02:56:40.249Z,62.14
2022-12-25T02:58:44.461Z,62.12
2022-12-25T03:00:48.762Z,62.19
2022-12-25T03:02:52.924Z,62.27
2022-12-25T03:04:57.688Z,62.05
2022-12-25T03:07:07.202Z,62.11
2022-12-25T03:09:12.451Z,62.09
2022-12-25T03:11:14.055Z,61.88
2022-12-25T03:13:20.111Z,62.18
2022-12-25T03:15:22.575Z,62.12
2022-12-25T03:17:24.652Z,62.03
2022-12-25T03:19:31.654Z,61.94
2022-12-25T03:21:33.274Z,62.16
2022-12-25T03:23:37.437Z,61.74
2022-12-25T03:25:39.012Z,61.84
2022-12-25T03:27:44.250Z,62.00
2022-12-25T03:29:45.929Z,61.88
2022-12-25T03:31:54.875Z,62.02
2022-12-25T03:34:08.004Z,61.96
2022-12-25T03:36:18.377Z,62.22
2022-12-25T03:38:30.187Z,61.88
2022-12-25T03:40:38.936Z,61.76
2022-12-25T03:42:51.291Z,61.74
2022-12-25T03:45:00.358Z,61.84
2022-12-25T03:47:09.851Z,61.99
2022-12-25T03:49:20.024Z,62.16
2022-12-25T03:51:29.881Z,61.77
2022-12-25T03:53:39.103Z,61.78
2022-12-25T03:55:42.209Z,61.81
2022-12-25T03:57:46.780Z,61.72
2022-12-25T03:59:48.343Z,61.63
2022-12-25T04:01:50.467Z,61.76
2022-12-25T04:03:52.096Z,62.15
2022-12-25T04:05:53.687Z,61.77
2022-12-25T04:07:56.656Z,61.87
2022-12-25T04:09:58.247Z,61.95
2022-12-25T04:12:02.712Z,62.24
2022-12-25T04:14:07.779Z,62.40
2022-12-25T04:16:09.315Z,62.40
2022-12-25T04:18:11.130Z,62.37
2022-12-25T04:20:12.735Z,62.57
2022-12-25T04:22:14.305Z,62.83
2022-12-25T04:24:17.228Z,62.44
2022-12-25T04:26:19.013Z,62.84
2022-12-25T04:28:20.524Z,62.89
2022-12-25T04:30:22.089Z,62.88
2022-12-25T04:32:23.621Z,62.94
2022-12-25T04:34:25.186Z,63.11
2022-12-25T04:36:26.708Z,62.87
2022-12-25T04:38:28.240Z,62.75
2022-12-25T04:40:31.145Z,63.09
2022-12-25T04:42:32.946Z,63.03
2022-12-25T04:44:34.569Z,62.75
2022-12-25T04:46:36.284Z,62.98
2022-12-25T04:48:37.879Z,63.00
2022-12-25T04:50:39.478Z,63.03
2022-12-25T04:52:41.294Z,63.18
2022-12-25T04:54:42.824Z,63.03
2022-12-25T04:56:46.170Z,62.92
2022-12-25T04:58:48.121Z,62.67
2022-12-25T05:00:49.695Z,63.11
2022-12-25T05:02:51.534Z,62.83
2022-12-25T05:04:53.261Z,62.87
2022-12-25T05:06:54.889Z,62.82
2022-12-25T05:08:56.544Z,63.10
2022-12-25T05:10:58.197Z,62.61
2022-12-25T05:13:01.091Z,62.83
2022-12-25T05:15:02.758Z,62.90
2022-12-25T05:17:04.305Z,62.66
2022-12-25T05:19:05.853Z,63.12
2022-12-25T05:21:09.126Z,62.74
2022-12-25T05:23:11.258Z,62.61
2022-12-25T05:25:12.771Z,62.78
2022-12-25T05:27:14.975Z,62.69
2022-12-25T05:29:17.882Z,62.75
2022-12-25T05:31:20.018Z,62.84
2022-12-25T05:33:21.618Z,62.80
2022-12-25T05:35:23.128Z,62.63
2022-12-25T05:37:24.665Z,62.72
2022-12-25T05:39:26.297Z,62.63
2022-12-25T05:41:33.799Z,62.66
2022-12-25T05:43:35.931Z,62.43
2022-12-25T05:45:39.001Z,62.61
2022-12-25T05:47:40.585Z,62.33
2022-12-25T05:49:42.654Z,62.45
2022-12-25T05:51:44.233Z,62.84
2022-12-25T05:53:45.796Z,62.61
2022-12-25T05:55:47.411Z,62.70
2022-12-25T05:57:48.960Z,62.98
2022-12-25T05:59:50.531Z,63.05
2022-12-25T06:01:53.541Z,62.99
2022-12-25T06:03:56.026Z,62.78
2022-12-25T06:05:57.661Z,62.86
2022-12-25T06:07:59.215Z,62.79
2022-12-25T06:10:00.881Z,63.47
2022-12-25T06:12:02.496Z,63.43
2022-12-25T06:14:04.025Z,63.43
2022-12-25T06:16:06.617Z,63.63
2022-12-25T06:18:09.614Z,63.73
2022-12-25T06:20:11.692Z,63.84
2022-12-25T06:22:13.227Z,63.60
2022-12-25T06:24:21.036Z,63.20
2022-12-25T06:26:23.082Z,62.57
2022-12-25T06:28:24.663Z,63.06
2022-12-25T06:30:26.208Z,62.83
2022-12-25T06:32:27.841Z,62.87
2022-12-25T06:34:30.823Z,62.82
2022-12-25T06:36:32.511Z,62.88
2022-12-25T06:38:34.369Z,62.73
2022-12-25T06:40:35.923Z,63.00
2022-12-25T06:42:37.494Z,63.50
2022-12-25T06:44:39.032Z,62.78
2022-12-25T06:46:40.629Z,63.14
2022-12-25T06:48:43.037Z,63.23
2022-12-25T06:50:45.974Z,63.77
2022-12-25T06:52:47.513Z,63.89
2022-12-25T06:54:49.038Z,63.98
2022-12-25T06:56:50.578Z,63.89
2022-12-25T06:58:53.810Z,63.72
2022-12-25T07:00:55.712Z,63.87
2022-12-25T07:02:57.438Z,63.92
2022-12-25T07:05:00.562Z,63.96
2022-12-25T07:07:08.773Z,63.83
2022-12-25T07:09:10.932Z,64.00
2022-12-25T07:11:12.491Z,64.16
2022-12-25T07:13:14.030Z,63.91
2022-12-25T07:15:15.642Z,64.04
2022-12-25T07:17:17.740Z,64.32
2022-12-25T07:19:19.370Z,64.03
2022-12-25T07:21:21.454Z,64.33
2022-12-25T07:23:24.333Z,64.04
2022-12-25T07:25:25.835Z,63.93
2022-12-25T07:27:27.337Z,64.42
2022-12-25T07:29:28.869Z,64.13
2022-12-25T07:31:33.212Z,64.33
2022-12-25T07:33:34.954Z,64.27
2022-12-25T07:35:36.547Z,64.46
2022-12-25T07:37:38.112Z,64.43
2022-12-25T07:39:41.115Z,64.61
2022-12-25T07:41:42.866Z,64.22
2022-12-25T07:43:44.413Z,64.27
2022-12-25T07:45:46.130Z,64.09
2022-12-25T07:47:47.744Z,64.19
2022-12-25T07:49:49.268Z,64.03
2022-12-25T07:51:50.832Z,63.88
2022-12-25T07:53:54.153Z,63.64
2022-12-25T07:56:02.481Z,63.58
2022-12-25T07:58:04.068Z,63.68
2022-12-25T08:00:10.376Z,64.05
2022-12-25T08:02:12.062Z,64.11
2022-12-25T08:04:13.931Z,64.09
2022-12-25T08:06:15.627Z,64.04
2022-12-25T08:08:17.209Z,64.34
2022-12-25T08:10:18.769Z,64.21
2022-12-25T08:12:21.737Z,63.87
2022-12-25T08:14:23.355Z,64.18
2022-12-25T08:16:25.385Z,64.30
2022-12-25T08:18:30.098Z,63.83
2022-12-25T08:20:32.005Z,64.20
2022-12-25T08:22:33.624Z,64.11
2022-12-25T08:24:35.227Z,64.04
2022-12-25T08:26:36.875Z,63.77
2022-12-25T08:28:40.321Z,63.39
2022-12-25T08:30:41.943Z,63.92
2022-12-25T08:32:43.552Z,64.76
2022-12-25T08:34:45.261Z,64.56
2022-12-25T08:36:46.901Z,64.59
2022-12-25T08:38:48.581Z,64.95
2022-12-25T08:40:50.143Z,64.79
2022-12-25T08:42:51.909Z,64.49
2022-12-25T08:44:54.836Z,63.79
2022-12-25T08:46:56.420Z,63.70
2022-12-25T08:48:58.236Z,63.71
2022-12-25T08:51:00.035Z,63.30
2022-12-25T08:53:02.054Z,63.40
2022-12-25T08:55:04.023Z,63.34
2022-12-25T08:57:05.575Z,63.70
2022-12-25T08:59:07.140Z,64.23
2022-12-25T09:01:10.760Z,64.32
2022-12-25T09:03:12.459Z,63.94
2022-12-25T09:05:14.212Z,63.97
2022-12-25T09:07:15.819Z,63.95
2022-12-25T09:09:17.458Z,64.14
2022-12-25T09:11:20.246Z,64.15
2022-12-25T09:13:21.904Z,64.23
2022-12-25T09:15:23.532Z,64.49
2022-12-25T09:17:29.954Z,64.04
2022-12-25T09:19:31.867Z,64.21
2022-12-25T09:21:33.647Z,64.13
2022-12-25T09:23:35.360Z,63.90
2022-12-25T09:25:36.983Z,64.03
2022-12-25T09:27:38.570Z,63.71
2022-12-25T09:29:40.278Z,64.40
2022-12-25T09:31:44.653Z,64.27
2022-12-25T09:33:47.774Z,64.37
2022-12-25T09:36:00.113Z,64.36
2022-12-25T09:38:02.496Z,64.34
2022-12-25T09:40:05.213Z,64.09
2022-12-25T09:42:12.137Z,64.03
2022-12-25T09:44:18.925Z,64.32
2022-12-25T09:46:23.548Z,63.73
2022-12-25T09:48:28.009Z,63.75
2022-12-25T09:50:40.057Z,63.60
2022-12-25T09:52:45.991Z,63.77
2022-12-25T09:54:56.481Z,63.18
2022-12-25T09:56:58.115Z,63.39
2022-12-25T09:58:59.876Z,62.86
2022-12-25T10:01:12.795Z,63.14
2022-12-25T10:03:29.193Z,63.43
2022-12-25T10:05:52.035Z,63.13
2022-12-25T10:08:03.200Z,62.75
2022-12-25T10:10:18.283Z,62.44
2022-12-25T10:12:37.923Z,62.04
2022-12-25T10:14:49.454Z,62.45
2022-12-25T10:17:01.948Z,62.43
2022-12-25T10:19:14.165Z,62.25
2022-12-25T10:21:18.791Z,62.60
2022-12-25T10:23:27.216Z,62.49
2022-12-25T10:25:28.949Z,62.01
2022-12-25T10:27:34.628Z,61.75
2022-12-25T10:29:36.288Z,61.53
2022-12-25T10:31:37.965Z,61.62
2022-12-25T10:33:39.605Z,61.99
2022-12-25T10:35:47.471Z,62.24
2022-12-25T10:37:57.404Z,61.57
2022-12-25T10:39:59.386Z,61.74
2022-12-25T10:42:28.225Z,61.96
2022-12-25T10:44:30.429Z,61.90
2022-12-25T10:46:32.293Z,62.27
2022-12-25T10:48:34.031Z,62.29
2022-12-25T10:50:42.772Z,62.17
2022-12-25T10:53:00.417Z,62.03
2022-12-25T10:55:11.472Z,61.99
2022-12-25T10:57:16.035Z,62.21
2022-12-25T10:59:17.598Z,62.30
2022-12-25T11:01:19.381Z,62.19
2022-12-25T11:03:23.510Z,62.43
2022-12-25T11:05:28.243Z,62.46
2022-12-25T11:07:31.067Z,62.21
2022-12-25T11:09:34.331Z,62.31
2022-12-25T11:11:36.112Z,61.82
2022-12-25T11:13:47.300Z,61.52
2022-12-25T11:15:50.097Z,61.64
2022-12-25T11:17:51.678Z,61.45
2022-12-25T11:19:57.030Z,61.90
2022-12-25T11:22:01.987Z,61.40
2022-12-25T11:24:05.111Z,62.37
2022-12-25T11:26:10.384Z,62.05
2022-12-25T11:28:12.298Z,62.04
2022-12-25T11:30:16.231Z,61.43
2022-12-25T11:32:22.476Z,61.71
2022-12-25T11:34:32.293Z,61.72
2022-12-25T11:36:43.580Z,61.13
2022-12-25T11:38:45.235Z,61.15
2022-12-25T11:40:49.926Z,61.52
2022-12-25T11:42:57.566Z,61.47
2022-12-25T11:45:05.351Z,61.40
2022-12-25T11:47:13.347Z,61.36
2022-12-25T11:49:18.607Z,61.50
2022-12-25T11:51:21.088Z,61.54
2022-12-25T11:53:29.155Z,61.62
2022-12-25T11:55:35.574Z,61.89
2022-12-25T11:57:39.094Z,61.53
2022-12-25T11:59:50.200Z,61.59
2022-12-25T12:01:57.547Z,61.59
2022-12-25T12:04:00.885Z,61.18
2022-12-25T12:06:08.687Z,61.14
2022-12-25T12:08:10.568Z,60.64
2022-12-25T12:10:18.280Z,60.92
2022-12-25T12:12:27.181Z,60.69
2022-12-25T12:14:42.155Z,60.78
2022-12-25T12:16:45.234Z,60.53
2022-12-25T12:18:50.277Z,60.60
2022-12-25T12:21:00.619Z,60.54
2022-12-25T12:23:05.025Z,60.70
2022-12-25T12:25:07.821Z,61.10
2022-12-25T12:27:22.281Z,61.04
2022-12-25T12:29:28.165Z,60.59
2022-12-25T12:31:38.573Z,60.78
2022-12-25T12:33:54.657Z,61.32
2022-12-25T12:35:57.519Z,62.04
2022-12-25T12:38:02.076Z,61.53
2022-12-25T12:40:05.795Z,61.17
2022-12-25T12:42:13.571Z,61.50
2022-12-25T12:44:17.466Z,61.44
2022-12-25T12:46:27.963Z,61.44
2022-12-25T12:48:40.317Z,61.18
2022-12-25T12:50:43.591Z,60.93
2022-12-25T12:52:45.436Z,60.98
2022-12-25T12:54:57.039Z,60.94
2022-12-25T12:57:00.885Z,61.68
2022-12-25T12:59:04.803Z,61.36
2022-12-25T13:01:14.247Z,61.34
2022-12-25T13:03:43.751Z,61.12
2022-12-25T13:05:50.541Z,61.71
2022-12-25T13:08:02.442Z,61.39
2022-12-25T13:10:16.912Z,61.40
2022-12-25T13:12:21.460Z,61.68
2022-12-25T13:14:24.946Z,61.35
2022-12-25T13:16:34.626Z,61.19
2022-12-25T13:18:39.501Z,61.29
2022-12-25T13:20:47.898Z,61.82
2022-12-25T13:22:52.958Z,61.83
2022-12-25T13:24:57.232Z,62.00
2022-12-25T13:27:00.198Z,61.58
2022-12-25T13:29:03.947Z,61.31
2022-12-25T13:31:15.652Z,60.91
2022-12-25T13:33:19.099Z,61.13
2022-12-25T13:35:23.149Z,61.41
2022-12-25T13:37:29.826Z,61.32
2022-12-25T13:39:33.854Z,61.33
2022-12-25T13:41:42.150Z,61.67
2022-12-25T13:43:44.805Z,61.67
2022-12-25T13:45:54.671Z,61.50
2022-12-25T13:47:57.031Z,61.32
2022-12-25T13:50:01.269Z,61.69
2022-12-25T13:52:11.650Z,61.40
2022-12-25T13:54:16.152Z,61.41
2022-12-25T13:56:17.772Z,61.33
2022-12-25T13:58:27.333Z,61.59
2022-12-25T14:00:33.306Z,61.35
2022-12-25T14:02:37.360Z,61.59
2022-12-25T14:04:44.517Z,61.42
2022-12-25T14:06:47.709Z,61.54
2022-12-25T14:08:50.967Z,61.79
2022-12-25T14:10:55.570Z,61.71
2022-12-25T14:13:00.864Z,61.05
2022-12-25T14:15:04.274Z,61.50
2022-12-25T14:17:06.053Z,61.94
2022-12-25T14:19:24.973Z,61.54
2022-12-25T14:21:29.797Z,61.18
2022-12-25T14:23:39.381Z,60.96
2022-12-25T14:25:42.743Z,61.50
2022-12-25T14:27:50.702Z,61.62
2022-12-25T14:29:55.646Z,61.93
2022-12-25T14:32:00.333Z,61.90
2022-12-25T14:34:04.996Z,61.98
2022-12-25T14:36:07.391Z,62.24
2022-12-25T14:38:17.303Z,62.07
2022-12-25T14:40:23.909Z,62.06
2022-12-25T14:42:27.403Z,61.92
2022-12-25T14:44:33.819Z,61.70
2022-12-25T14:46:35.452Z,61.69
2022-12-25T14:48:37.169Z,61.78
2022-12-25T14:50:43.046Z,61.79
2022-12-25T14:52:45.359Z,61.80
2022-12-25T14:54:49.805Z,61.86
2022-12-25T14:56:53.559Z,61.74
2022-12-25T14:58:56.936Z,62.22
2022-12-25T15:01:02.723Z,62.26
2022-12-25T15:03:06.866Z,61.69
2022-12-25T15:05:24.497Z,61.75
2022-12-25T15:07:29.493Z,61.69
2022-12-25T15:09:31.075Z,62.00
2022-12-25T15:11:33.017Z,62.05
2022-12-25T15:13:34.621Z,61.97
2022-12-25T15:15:36.271Z,62.02
2022-12-25T15:17:39.195Z,62.14
2022-12-25T15:19:40.783Z,62.02
2022-12-25T15:21:42.402Z,62.04
2022-12-25T15:23:44.404Z,62.20
2022-12-25T15:25:46.091Z,62.21
2022-12-25T15:27:49.158Z,62.01
2022-12-25T15:32:16.995Z,61.74
2022-12-25T15:34:20.863Z,61.39
2022-12-25T15:36:23.558Z,61.60
2022-12-25T15:38:25.250Z,61.24
2022-12-25T15:40:26.855Z,61.20
2022-12-25T15:42:28.514Z,61.12
2022-12-25T15:44:30.110Z,61.25
2022-12-25T15:46:32.354Z,61.35
2022-12-25T15:48:34.047Z,61.68
2022-12-25T15:50:36.989Z,61.78
2022-12-25T15:52:38.599Z,61.83
2022-12-25T15:54:40.261Z,61.67
2022-12-25T15:56:44.599Z,61.65
2022-12-25T15:58:46.186Z,61.82
2022-12-25T16:00:47.788Z,62.19
2022-12-25T16:02:49.894Z,62.00
2022-12-25T16:04:51.876Z,62.43
2022-12-25T16:06:55.691Z,62.25
2022-12-25T16:08:57.288Z,62.57
2022-12-25T16:10:58.803Z,62.49
2022-12-25T16:13:00.415Z,62.50
2022-12-25T16:15:02.096Z,62.23
2022-12-25T16:17:03.962Z,62.51
2022-12-25T16:19:05.944Z,62.45
2022-12-25T16:21:13.096Z,62.72
2022-12-25T16:23:16.080Z,62.74
2022-12-25T16:25:19.366Z,62.82
2022-12-25T16:27:21.327Z,63.00
2022-12-25T16:29:22.975Z,62.76
2022-12-25T16:31:24.531Z,62.96
2022-12-25T16:33:26.259Z,62.92
2022-12-25T16:35:27.857Z,62.82
2022-12-25T16:37:29.451Z,63.08
2022-12-25T16:39:33.035Z,63.08
2022-12-25T16:41:34.692Z,63.29
2022-12-25T16:43:36.253Z,63.19
2022-12-25T16:45:38.549Z,63.13
2022-12-25T16:47:42.928Z,63.29
2022-12-25T16:49:44.479Z,63.19
2022-12-25T16:51:46.124Z,63.29
2022-12-25T16:53:48.025Z,63.13
2022-12-25T16:55:50.887Z,63.42
2022-12-25T16:57:52.492Z,63.27
2022-12-25T16:59:54.084Z,63.12
2022-12-25T17:01:55.741Z,62.93
2022-12-25T17:03:59.105Z,63.15
2022-12-25T17:06:01.787Z,62.88
2022-12-25T17:08:03.537Z,62.97
2022-12-25T17:10:06.443Z,63.13
2022-12-25T17:12:09.579Z,63.19
2022-12-25T17:14:11.143Z,63.00
2022-12-25T17:16:14.772Z,62.95
2022-12-25T17:18:16.283Z,62.84
2022-12-25T17:20:17.863Z,63.08
2022-12-25T17:22:19.467Z,62.89
2022-12-25T17:24:21.594Z,62.86
2022-12-25T17:26:23.133Z,62.75
2022-12-25T17:28:26.012Z,62.80
2022-12-25T17:30:27.563Z,62.56
2022-12-25T17:32:29.118Z,62.51
2022-12-25T17:34:30.656Z,62.21
2022-12-25T17:36:32.988Z,62.23
2022-12-25T17:38:34.613Z,62.29
2022-12-25T17:40:36.353Z,62.45
2022-12-25T17:42:37.885Z,62.28
2022-12-25T17:44:40.804Z,62.29
2022-12-25T17:46:42.680Z,62.12
2022-12-25T17:48:44.692Z,62.00
2022-12-25T17:50:46.728Z,61.96
2022-12-25T17:52:48.305Z,61.87
2022-12-25T17:54:49.847Z,61.99
2022-12-25T17:56:51.381Z,62.04
2022-12-25T17:58:55.166Z,62.26
2022-12-25T18:00:58.133Z,62.16
2022-12-25T18:03:03.016Z,62.10
2022-12-25T18:05:10.604Z,62.21
2022-12-25T18:07:12.884Z,62.42
2022-12-25T18:09:14.445Z,62.28
2022-12-25T18:11:19.123Z,62.03
2022-12-25T18:13:20.677Z,62.19
2022-12-25T18:15:22.244Z,62.28
2022-12-25T18:17:25.221Z,62.17
2022-12-25T18:19:26.822Z,62.22
2022-12-25T18:21:28.674Z,62.54
2022-12-25T18:23:30.901Z,62.31
2022-12-25T18:25:32.535Z,62.54
2022-12-25T18:27:34.081Z,62.51
2022-12-25T18:29:35.675Z,62.22
2022-12-25T18:31:37.362Z,62.51
2022-12-25T18:33:40.877Z,62.46
2022-12-25T18:35:43.533Z,62.81
2022-12-25T18:37:45.196Z,62.58
2022-12-25T18:39:47.323Z,62.86
2022-12-25T18:41:48.927Z,63.00
2022-12-25T18:43:52.630Z,63.04
2022-12-25T18:45:57.642Z,63.08
2022-12-25T18:47:59.267Z,63.02
2022-12-25T18:50:02.362Z,63.23
2022-12-25T18:52:48.825Z,63.05
2022-12-25T18:54:25.858Z,62.96
2022-12-25T18:56:27.451Z,63.10
2022-12-25T18:58:29.153Z,63.21
2022-12-25T19:00:30.979Z,63.03
2022-12-25T19:02:32.705Z,63.18
2022-12-25T19:04:34.377Z,63.17
2022-12-25T19:06:37.346Z,63.24
2022-12-25T19:08:38.884Z,63.28
2022-12-25T19:10:43.635Z,63.71
2022-12-25T19:12:45.684Z,63.56
2022-12-25T19:14:48.541Z,63.70
2022-12-25T19:16:50.239Z,63.76
2022-12-25T19:18:52.111Z,63.81
2022-12-25T19:20:53.725Z,63.91
2022-12-25T19:22:56.627Z,64.09
2022-12-25T19:24:58.306Z,64.25
2022-12-25T19:27:01.371Z,64.14
2022-12-25T19:29:03.535Z,63.95
2022-12-25T19:31:07.556Z,63.99
2022-12-25T19:33:15.591Z,63.84
2022-12-25T19:35:19.153Z,63.96
2022-12-25T19:37:20.856Z,63.82
2022-12-25T19:39:23.772Z,64.24
2022-12-25T19:41:25.474Z,64.12
2022-12-25T19:43:28.060Z,63.90
2022-12-25T19:45:29.727Z,64.02
2022-12-25T19:47:31.357Z,63.76
2022-12-25T19:49:32.995Z,63.66
2022-12-25T19:51:37.345Z,63.38
2022-12-25T19:53:38.936Z,63.73
2022-12-25T19:55:41.912Z,63.71
2022-12-25T19:57:43.474Z,63.60
2022-12-25T19:59:45.215Z,63.31
2022-12-25T20:01:47.189Z,63.23
2022-12-25T20:03:49.485Z,63.10
2022-12-25T20:05:51.578Z,62.75
2022-12-25T20:07:53.934Z,62.97
2022-12-25T20:09:55.493Z,62.85
2022-12-25T20:12:01.539Z,62.74
2022-12-25T20:14:04.034Z,62.79
2022-12-25T20:16:06.594Z,62.61
2022-12-25T20:18:08.404Z,62.39
2022-12-25T20:20:11.003Z,62.30
2022-12-25T20:22:12.623Z,62.33
2022-12-25T20:24:14.183Z,62.13
2022-12-25T20:26:17.749Z,61.86
2022-12-25T20:28:20.753Z,61.92
2022-12-25T20:30:22.361Z,61.79
2022-12-25T20:32:23.997Z,61.51
2022-12-25T20:34:25.691Z,61.40
2022-12-25T20:36:31.196Z,61.66
2022-12-25T20:38:36.169Z,61.73
2022-12-25T20:41:24.023Z,61.77
2022-12-25T20:42:59.314Z,61.60
2022-12-25T20:45:03.536Z,61.23
2022-12-25T20:47:05.261Z,60.95
2022-12-25T20:49:07.304Z,60.96
2022-12-25T20:51:11.098Z,61.01
2022-12-25T20:53:12.720Z,61.13
2022-12-25T20:55:14.317Z,60.89
2022-12-25T20:57:15.962Z,61.26
2022-12-25T20:59:17.623Z,60.67
2022-12-25T21:01:20.755Z,60.70
2022-12-25T21:03:23.032Z,60.79
2022-12-25T21:05:24.670Z,60.82
2022-12-25T21:07:26.388Z,60.88
2022-12-25T21:09:28.251Z,61.18
2022-12-25T21:11:29.827Z,61.17
2022-12-25T21:13:33.227Z,61.37
2022-12-25T21:15:34.785Z,60.97
2022-12-25T21:17:37.708Z,60.64
2022-12-25T21:19:39.361Z,61.07
2022-12-25T21:21:40.965Z,60.94
2022-12-25T21:23:42.536Z,60.77
2022-12-25T21:25:44.380Z,60.89
2022-12-25T21:27:45.955Z,60.85
2022-12-25T21:29:47.487Z,60.85
2022-12-25T21:31:49.091Z,61.08
2022-12-25T21:33:53.299Z,61.02
2022-12-25T21:35:55.067Z,61.10
2022-12-25T21:37:56.799Z,60.94
2022-12-25T21:39:58.629Z,61.14
2022-12-25T21:42:00.194Z,61.13
2022-12-25T21:44:02.198Z,60.97
2022-12-25T21:46:04.769Z,61.18
2022-12-25T21:48:06.662Z,60.90
2022-12-25T21:50:10.694Z,60.72
2022-12-25T21:52:12.469Z,60.99
2022-12-25T21:54:14.845Z,60.90
2022-12-25T21:56:17.209Z,60.47
2022-12-25T21:58:18.769Z,60.49
2022-12-25T22:00:20.749Z,60.51
2022-12-25T22:02:22.476Z,60.42
2022-12-25T22:04:24.237Z,60.47
2022-12-25T22:06:27.166Z,60.59
2022-12-25T22:08:29.888Z,60.46
2022-12-25T22:10:31.455Z,60.52
2022-12-25T22:12:34.521Z,60.34
2022-12-25T22:14:50.522Z,60.57
2022-12-25T22:16:55.207Z,60.42
2022-12-25T22:18:56.788Z,60.69
2022-12-25T22:20:58.326Z,60.41
2022-12-25T22:23:01.475Z,60.34
2022-12-25T22:25:05.612Z,60.31
2022-12-25T22:27:07.270Z,60.00
2022-12-25T22:29:08.833Z,59.81
2022-12-25T22:31:10.498Z,59.82
2022-12-25T22:33:13.202Z,59.65
2022-12-25T22:35:15.046Z,59.91
2022-12-25T22:37:18.204Z,59.62
2022-12-25T22:39:21.200Z,59.48
2022-12-25T22:41:22.741Z,59.36
2022-12-25T22:43:43.337Z,59.13
2022-12-25T22:45:46.333Z,58.99
2022-12-25T22:47:48.002Z,58.99
2022-12-25T22:49:49.671Z,59.06
2022-12-25T22:51:52.033Z,58.87
2022-12-25T22:53:57.396Z,58.85
2022-12-25T22:56:03.353Z,58.85
2022-12-25T22:58:04.882Z,58.83
2022-12-25T23:00:08.583Z,58.55
2022-12-25T23:02:10.231Z,58.59
2022-12-25T23:04:12.431Z,58.37
2022-12-25T23:06:14.035Z,58.70
2022-12-25T23:08:15.625Z,58.43
2022-12-25T23:10:17.268Z,58.29
2022-12-25T23:12:20.208Z,58.46
2022-12-25T23:14:21.854Z,58.23
2022-12-25T23:16:23.904Z,58.41
2022-12-25T23:18:25.524Z,58.28
2022-12-25T23:20:27.051Z,58.41
2022-12-25T23:22:28.608Z,58.48
2022-12-25T23:24:30.171Z,58.32
2022-12-25T23:26:31.752Z,58.56
2022-12-25T23:28:35.338Z,58.33
2022-12-25T23:30:36.985Z,58.50
2022-12-25T23:32:38.977Z,58.30
2022-12-25T23:34:44.961Z,58.25
2022-12-25T23:36:46.590Z,57.89
2022-12-25T23:38:48.095Z,57.88
2022-12-25T23:40:49.726Z,58.00
2022-12-25T23:42:51.303Z,57.86
2022-12-25T23:44:54.144Z,58.00
2022-12-25T23:46:56.639Z,57.80
2022-12-25T23:48:58.278Z,58.15
2022-12-25T23:51:02.672Z,58.13
2022-12-25T23:53:04.239Z,58.04
2022-12-25T23:55:07.142Z,58.04
2022-12-25T23:57:08.858Z,57.87
2022-12-25T23:59:11.570Z,58.05
